sensor_id;sensor_type;location;lat;lon;timestamp;temperature;humidity
429;DHT22;201;48.758;9.290;2022-08-07T00:01:18;18.00;1.00
429;DHT22;201;48.758;9.290;2022-08-07T00:03:45;17.80;1.00
429;DHT22;201;48.758;9.290;2022-08-07T00:06:10;17.70;1.00
429;DHT22;201;48.758;9.290;2022-08-07T00:08:36;17.70;1.00
429;DHT22;201;48.758;9.290;2022-08-07T00:11:03;17.50;1.00
429;DHT22;201;48.758;9.290;2022-08-07T00:13:29;17.40;1.00
429;DHT22;201;48.758;9.290;2022-08-07T00:15:55;17.40;1.00
429;DHT22;201;48.758;9.290;2022-08-07T00:18:23;17.30;1.00
429;DHT22;201;48.758;9.290;2022-08-07T00:20:50;17.20;1.00
429;DHT22;201;48.758;9.290;2022-08-07T00:23:16;17.20;1.00
429;DHT22;201;48.758;9.290;2022-08-07T00:25:42;17.00;1.00
429;DHT22;201;48.758;9.290;2022-08-07T00:28:08;17.00;1.00
429;DHT22;201;48.758;9.290;2022-08-07T00:30:33;17.00;1.00
429;DHT22;201;48.758;9.290;2022-08-07T00:33:00;16.90;1.00
429;DHT22;201;48.758;9.290;2022-08-07T00:35:27;16.90;1.00
429;DHT22;201;48.758;9.290;2022-08-07T00:37:53;16.70;1.00
429;DHT22;201;48.758;9.290;2022-08-07T00:40:18;16.70;1.00
429;DHT22;201;48.758;9.290;2022-08-07T00:42:44;16.70;1.00
429;DHT22;201;48.758;9.290;2022-08-07T00:45:11;16.60;1.00
429;DHT22;201;48.758;9.290;2022-08-07T00:47:37;16.70;1.00
429;DHT22;201;48.758;9.290;2022-08-07T00:50:03;16.70;1.00
429;DHT22;201;48.758;9.290;2022-08-07T00:52:29;16.70;1.00
429;DHT22;201;48.758;9.290;2022-08-07T00:54:55;16.60;1.00
429;DHT22;201;48.758;9.290;2022-08-07T00:57:24;16.60;1.00
429;DHT22;201;48.758;9.290;2022-08-07T00:59:50;16.60;1.00
429;DHT22;201;48.758;9.290;2022-08-07T01:02:16;16.70;1.00
429;DHT22;201;48.758;9.290;2022-08-07T01:04:42;16.80;1.00
429;DHT22;201;48.758;9.290;2022-08-07T01:07:07;16.80;1.00
429;DHT22;201;48.758;9.290;2022-08-07T01:09:33;16.90;1.00
429;DHT22;201;48.758;9.290;2022-08-07T01:11:59;16.90;1.00
429;DHT22;201;48.758;9.290;2022-08-07T01:14:25;17.00;1.00
429;DHT22;201;48.758;9.290;2022-08-07T01:16:52;17.00;1.00
429;DHT22;201;48.758;9.290;2022-08-07T01:19:20;17.10;1.00
429;DHT22;201;48.758;9.290;2022-08-07T01:21:47;17.00;1.00
429;DHT22;201;48.758;9.290;2022-08-07T01:24:13;17.00;1.00
429;DHT22;201;48.758;9.290;2022-08-07T01:26:39;17.10;1.00
429;DHT22;201;48.758;9.290;2022-08-07T01:29:05;17.00;1.00
429;DHT22;201;48.758;9.290;2022-08-07T01:31:31;17.00;1.00
429;DHT22;201;48.758;9.290;2022-08-07T01:34:00;17.00;1.00
429;DHT22;201;48.758;9.290;2022-08-07T01:36:27;16.90;1.00
429;DHT22;201;48.758;9.290;2022-08-07T01:38:56;16.90;1.00
429;DHT22;201;48.758;9.290;2022-08-07T01:41:22;16.90;1.00
429;DHT22;201;48.758;9.290;2022-08-07T01:43:49;16.90;1.00
429;DHT22;201;48.758;9.290;2022-08-07T01:46:16;16.80;1.00
429;DHT22;201;48.758;9.290;2022-08-07T01:48:43;16.80;1.00
429;DHT22;201;48.758;9.290;2022-08-07T01:51:11;16.80;1.00
429;DHT22;201;48.758;9.290;2022-08-07T01:53:41;16.70;1.00
429;DHT22;201;48.758;9.290;2022-08-07T01:56:52;16.70;1.00
429;DHT22;201;48.758;9.290;2022-08-07T01:59:27;16.70;1.00
429;DHT22;201;48.758;9.290;2022-08-07T02:02:00;16.70;1.00
429;DHT22;201;48.758;9.290;2022-08-07T02:05:03;16.70;1.00
429;DHT22;201;48.758;9.290;2022-08-07T02:07:33;16.70;1.00
429;DHT22;201;48.758;9.290;2022-08-07T02:10:00;16.80;1.00
429;DHT22;201;48.758;9.290;2022-08-07T02:12:30;16.70;1.00
429;DHT22;201;48.758;9.290;2022-08-07T02:14:59;16.80;1.00
429;DHT22;201;48.758;9.290;2022-08-07T02:17:25;16.80;1.00
429;DHT22;201;48.758;9.290;2022-08-07T02:19:52;16.70;1.00
429;DHT22;201;48.758;9.290;2022-08-07T02:22:19;16.70;1.00
429;DHT22;201;48.758;9.290;2022-08-07T02:24:49;16.70;1.00
429;DHT22;201;48.758;9.290;2022-08-07T02:27:18;16.80;1.00
429;DHT22;201;48.758;9.290;2022-08-07T02:29:45;16.70;1.00
429;DHT22;201;48.758;9.290;2022-08-07T02:32:11;16.70;1.00
429;DHT22;201;48.758;9.290;2022-08-07T02:34:39;16.70;1.00
429;DHT22;201;48.758;9.290;2022-08-07T02:37:06;16.70;1.00
429;DHT22;201;48.758;9.290;2022-08-07T02:39:38;16.70;1.00
429;DHT22;201;48.758;9.290;2022-08-07T02:42:05;16.80;1.00
429;DHT22;201;48.758;9.290;2022-08-07T02:44:32;16.70;1.00
429;DHT22;201;48.758;9.290;2022-08-07T02:47:01;16.70;1.00
429;DHT22;201;48.758;9.290;2022-08-07T02:49:27;16.60;1.00
429;DHT22;201;48.758;9.290;2022-08-07T02:51:55;16.60;1.00
429;DHT22;201;48.758;9.290;2022-08-07T02:54:25;16.60;1.00
429;DHT22;201;48.758;9.290;2022-08-07T02:56:53;16.60;1.00
429;DHT22;201;48.758;9.290;2022-08-07T02:59:23;16.60;1.00
429;DHT22;201;48.758;9.290;2022-08-07T03:01:50;16.60;1.00
429;DHT22;201;48.758;9.290;2022-08-07T03:04:16;16.60;1.00
429;DHT22;201;48.758;9.290;2022-08-07T03:06:43;16.60;1.00
429;DHT22;201;48.758;9.290;2022-08-07T03:09:11;16.50;1.00
429;DHT22;201;48.758;9.290;2022-08-07T03:11:37;16.40;1.00
429;DHT22;201;48.758;9.290;2022-08-07T03:14:04;16.30;1.00
429;DHT22;201;48.758;9.290;2022-08-07T03:16:31;16.30;1.00
429;DHT22;201;48.758;9.290;2022-08-07T03:18:58;16.20;1.00
429;DHT22;201;48.758;9.290;2022-08-07T03:21:24;16.20;1.00
429;DHT22;201;48.758;9.290;2022-08-07T03:23:56;16.20;1.00
429;DHT22;201;48.758;9.290;2022-08-07T03:26:24;16.20;1.00
429;DHT22;201;48.758;9.290;2022-08-07T03:28:53;16.00;1.00
429;DHT22;201;48.758;9.290;2022-08-07T03:31:20;16.10;1.00
429;DHT22;201;48.758;9.290;2022-08-07T03:33:49;16.10;1.00
429;DHT22;201;48.758;9.290;2022-08-07T03:36:15;16.00;1.00
429;DHT22;201;48.758;9.290;2022-08-07T03:38:44;16.00;1.00
429;DHT22;201;48.758;9.290;2022-08-07T03:41:11;16.00;1.00
429;DHT22;201;48.758;9.290;2022-08-07T03:43:37;15.90;1.00
429;DHT22;201;48.758;9.290;2022-08-07T03:46:05;16.00;1.00
429;DHT22;201;48.758;9.290;2022-08-07T03:48:32;16.10;1.00
429;DHT22;201;48.758;9.290;2022-08-07T03:51:00;16.00;1.00
429;DHT22;201;48.758;9.290;2022-08-07T03:53:26;16.10;1.00
429;DHT22;201;48.758;9.290;2022-08-07T03:55:52;16.10;1.00
429;DHT22;201;48.758;9.290;2022-08-07T03:58:20;16.00;1.00
429;DHT22;201;48.758;9.290;2022-08-07T04:00:47;16.10;1.00
429;DHT22;201;48.758;9.290;2022-08-07T04:03:13;16.10;1.00
429;DHT22;201;48.758;9.290;2022-08-07T04:05:39;16.10;1.00
429;DHT22;201;48.758;9.290;2022-08-07T04:08:04;16.10;1.00
429;DHT22;201;48.758;9.290;2022-08-07T04:10:30;16.00;1.00
429;DHT22;201;48.758;9.290;2022-08-07T04:12:57;16.00;1.00
429;DHT22;201;48.758;9.290;2022-08-07T04:15:22;16.00;1.00
429;DHT22;201;48.758;9.290;2022-08-07T04:17:48;16.10;1.00
429;DHT22;201;48.758;9.290;2022-08-07T04:20:14;16.10;1.00
429;DHT22;201;48.758;9.290;2022-08-07T04:22:41;16.00;1.00
429;DHT22;201;48.758;9.290;2022-08-07T04:25:07;16.00;1.00
429;DHT22;201;48.758;9.290;2022-08-07T04:27:34;16.00;1.00
429;DHT22;201;48.758;9.290;2022-08-07T04:30:00;16.00;1.00
429;DHT22;201;48.758;9.290;2022-08-07T04:32:26;16.10;1.00
429;DHT22;201;48.758;9.290;2022-08-07T04:34:53;16.10;1.00
429;DHT22;201;48.758;9.290;2022-08-07T04:37:20;16.10;1.00
429;DHT22;201;48.758;9.290;2022-08-07T04:39:45;16.20;1.00
429;DHT22;201;48.758;9.290;2022-08-07T04:42:11;16.20;1.00
429;DHT22;201;48.758;9.290;2022-08-07T04:44:37;16.20;1.00
429;DHT22;201;48.758;9.290;2022-08-07T04:47:10;16.20;1.00
429;DHT22;201;48.758;9.290;2022-08-07T04:49:42;16.30;1.00
429;DHT22;201;48.758;9.290;2022-08-07T04:55:02;16.30;1.00
429;DHT22;201;48.758;9.290;2022-08-07T04:57:41;16.30;1.00
429;DHT22;201;48.758;9.290;2022-08-07T05:00:13;16.30;1.00
429;DHT22;201;48.758;9.290;2022-08-07T05:02:49;16.40;1.00
429;DHT22;201;48.758;9.290;2022-08-07T05:05:22;16.40;1.00
429;DHT22;201;48.758;9.290;2022-08-07T05:08:18;16.60;1.00
429;DHT22;201;48.758;9.290;2022-08-07T05:10:44;16.70;1.00
429;DHT22;201;48.758;9.290;2022-08-07T05:13:30;16.80;1.00
429;DHT22;201;48.758;9.290;2022-08-07T05:16:03;16.80;1.00
429;DHT22;201;48.758;9.290;2022-08-07T05:18:33;16.80;1.00
429;DHT22;201;48.758;9.290;2022-08-07T05:21:02;17.10;1.00
429;DHT22;201;48.758;9.290;2022-08-07T05:23:35;17.30;1.00
429;DHT22;201;48.758;9.290;2022-08-07T05:26:04;17.60;1.00
429;DHT22;201;48.758;9.290;2022-08-07T05:28:35;17.70;1.00
429;DHT22;201;48.758;9.290;2022-08-07T05:31:01;17.90;1.00
429;DHT22;201;48.758;9.290;2022-08-07T05:33:29;18.00;1.00
429;DHT22;201;48.758;9.290;2022-08-07T05:35:55;18.20;1.00
429;DHT22;201;48.758;9.290;2022-08-07T05:38:23;18.50;1.00
429;DHT22;201;48.758;9.290;2022-08-07T05:40:49;18.50;1.00
429;DHT22;201;48.758;9.290;2022-08-07T05:43:16;18.80;1.00
429;DHT22;201;48.758;9.290;2022-08-07T05:45:42;19.20;1.00
429;DHT22;201;48.758;9.290;2022-08-07T05:48:08;19.70;1.00
429;DHT22;201;48.758;9.290;2022-08-07T05:50:34;19.90;1.00
429;DHT22;201;48.758;9.290;2022-08-07T05:53:01;20.00;1.00
429;DHT22;201;48.758;9.290;2022-08-07T05:55:28;20.20;1.00
429;DHT22;201;48.758;9.290;2022-08-07T05:57:55;21.20;1.00
429;DHT22;201;48.758;9.290;2022-08-07T06:00:23;22.20;1.00
429;DHT22;201;48.758;9.290;2022-08-07T06:02:51;23.60;1.00
429;DHT22;201;48.758;9.290;2022-08-07T06:05:19;24.60;1.00
429;DHT22;201;48.758;9.290;2022-08-07T06:07:45;25.30;1.00
429;DHT22;201;48.758;9.290;2022-08-07T06:10:11;26.40;1.00
429;DHT22;201;48.758;9.290;2022-08-07T06:12:36;27.70;1.00
429;DHT22;201;48.758;9.290;2022-08-07T06:15:03;28.70;1.00
429;DHT22;201;48.758;9.290;2022-08-07T06:17:30;29.30;1.00
429;DHT22;201;48.758;9.290;2022-08-07T06:19:56;30.10;1.00
429;DHT22;201;48.758;9.290;2022-08-07T06:22:24;31.00;1.00
429;DHT22;201;48.758;9.290;2022-08-07T06:24:50;31.70;1.00
429;DHT22;201;48.758;9.290;2022-08-07T06:27:20;31.60;1.00
429;DHT22;201;48.758;9.290;2022-08-07T06:29:46;32.50;1.00
429;DHT22;201;48.758;9.290;2022-08-07T06:32:11;33.00;1.00
429;DHT22;201;48.758;9.290;2022-08-07T06:34:37;33.30;1.00
429;DHT22;201;48.758;9.290;2022-08-07T06:37:02;33.30;1.00
429;DHT22;201;48.758;9.290;2022-08-07T06:39:28;33.50;1.00
429;DHT22;201;48.758;9.290;2022-08-07T06:42:03;33.50;1.00
429;DHT22;201;48.758;9.290;2022-08-07T06:44:31;32.90;1.00
429;DHT22;201;48.758;9.290;2022-08-07T06:46:57;32.50;1.00
429;DHT22;201;48.758;9.290;2022-08-07T06:49:22;33.00;1.00
429;DHT22;201;48.758;9.290;2022-08-07T06:51:48;32.60;1.00
429;DHT22;201;48.758;9.290;2022-08-07T06:54:15;33.20;1.00
429;DHT22;201;48.758;9.290;2022-08-07T06:56:43;33.80;1.00
429;DHT22;201;48.758;9.290;2022-08-07T06:59:14;34.30;1.00
429;DHT22;201;48.758;9.290;2022-08-07T07:01:41;34.60;1.00
429;DHT22;201;48.758;9.290;2022-08-07T07:04:07;34.80;1.00
429;DHT22;201;48.758;9.290;2022-08-07T07:06:34;35.30;1.00
429;DHT22;201;48.758;9.290;2022-08-07T07:09:19;35.50;1.00
429;DHT22;201;48.758;9.290;2022-08-07T07:15:03;36.10;1.00
429;DHT22;201;48.758;9.290;2022-08-07T07:17:44;36.60;1.00
429;DHT22;201;48.758;9.290;2022-08-07T07:20:16;37.70;1.00
429;DHT22;201;48.758;9.290;2022-08-07T07:22:43;38.20;1.00
429;DHT22;201;48.758;9.290;2022-08-07T07:25:11;39.00;1.00
429;DHT22;201;48.758;9.290;2022-08-07T07:27:41;37.30;1.00
429;DHT22;201;48.758;9.290;2022-08-07T07:30:10;36.60;1.00
429;DHT22;201;48.758;9.290;2022-08-07T07:32:38;34.90;1.00
429;DHT22;201;48.758;9.290;2022-08-07T07:35:06;34.90;1.00
429;DHT22;201;48.758;9.290;2022-08-07T07:37:33;36.20;1.00
429;DHT22;201;48.758;9.290;2022-08-07T07:40:05;35.80;1.00
429;DHT22;201;48.758;9.290;2022-08-07T07:42:32;35.40;1.00
429;DHT22;201;48.758;9.290;2022-08-07T07:45:00;34.50;1.00
429;DHT22;201;48.758;9.290;2022-08-07T07:47:26;34.70;1.00
429;DHT22;201;48.758;9.290;2022-08-07T07:49:53;34.30;1.00
429;DHT22;201;48.758;9.290;2022-08-07T07:52:21;33.50;1.00
429;DHT22;201;48.758;9.290;2022-08-07T07:54:49;33.40;1.00
429;DHT22;201;48.758;9.290;2022-08-07T07:57:17;33.20;1.00
429;DHT22;201;48.758;9.290;2022-08-07T07:59:43;32.70;1.00
429;DHT22;201;48.758;9.290;2022-08-07T08:02:10;31.60;1.00
429;DHT22;201;48.758;9.290;2022-08-07T08:04:38;32.20;1.00
429;DHT22;201;48.758;9.290;2022-08-07T08:07:05;32.40;1.00
429;DHT22;201;48.758;9.290;2022-08-07T08:09:32;33.30;1.00
429;DHT22;201;48.758;9.290;2022-08-07T08:11:58;33.20;1.00
429;DHT22;201;48.758;9.290;2022-08-07T08:14:28;32.10;1.00
429;DHT22;201;48.758;9.290;2022-08-07T08:16:54;32.90;1.00
429;DHT22;201;48.758;9.290;2022-08-07T08:19:25;33.80;1.00
429;DHT22;201;48.758;9.290;2022-08-07T08:21:52;34.80;1.00
429;DHT22;201;48.758;9.290;2022-08-07T08:24:41;35.40;1.00
429;DHT22;201;48.758;9.290;2022-08-07T08:27:28;36.50;1.00
429;DHT22;201;48.758;9.290;2022-08-07T08:30:04;38.30;1.00
429;DHT22;201;48.758;9.290;2022-08-07T08:32:32;39.30;1.00
429;DHT22;201;48.758;9.290;2022-08-07T08:34:58;39.50;1.00
429;DHT22;201;48.758;9.290;2022-08-07T08:37:28;40.80;1.00
429;DHT22;201;48.758;9.290;2022-08-07T08:39:54;42.10;1.00
429;DHT22;201;48.758;9.290;2022-08-07T08:42:36;41.20;1.00
429;DHT22;201;48.758;9.290;2022-08-07T08:45:11;40.70;1.00
429;DHT22;201;48.758;9.290;2022-08-07T08:50:26;38.80;1.00
429;DHT22;201;48.758;9.290;2022-08-07T08:53:02;38.50;1.00
429;DHT22;201;48.758;9.290;2022-08-07T09:00:52;39.10;1.00
429;DHT22;201;48.758;9.290;2022-08-07T09:03:47;38.80;1.00
429;DHT22;201;48.758;9.290;2022-08-07T09:06:31;39.60;1.00
429;DHT22;201;48.758;9.290;2022-08-07T09:12:11;39.40;1.00
429;DHT22;201;48.758;9.290;2022-08-07T09:14:50;38.30;1.00
429;DHT22;201;48.758;9.290;2022-08-07T09:17:36;38.30;1.00
429;DHT22;201;48.758;9.290;2022-08-07T09:26:29;40.30;1.00
429;DHT22;201;48.758;9.290;2022-08-07T09:29:08;39.70;1.00
429;DHT22;201;48.758;9.290;2022-08-07T09:31:50;39.80;1.00
429;DHT22;201;48.758;9.290;2022-08-07T09:34:30;39.40;1.00
429;DHT22;201;48.758;9.290;2022-08-07T09:37:07;38.20;1.00
429;DHT22;201;48.758;9.290;2022-08-07T09:39:57;38.40;1.00
429;DHT22;201;48.758;9.290;2022-08-07T09:45:20;37.90;1.00
429;DHT22;201;48.758;9.290;2022-08-07T09:53:38;41.00;1.00
429;DHT22;201;48.758;9.290;2022-08-07T10:05:34;43.40;1.00
429;DHT22;201;48.758;9.290;2022-08-07T10:11:13;40.80;1.00
429;DHT22;201;48.758;9.290;2022-08-07T10:22:27;41.20;1.00
429;DHT22;201;48.758;9.290;2022-08-07T10:28:02;41.70;1.00
429;DHT22;201;48.758;9.290;2022-08-07T10:30:42;41.00;1.00
429;DHT22;201;48.758;9.290;2022-08-07T10:33:52;40.40;1.00
429;DHT22;201;48.758;9.290;2022-08-07T10:36:34;40.60;1.00
429;DHT22;201;48.758;9.290;2022-08-07T10:39:28;40.90;1.00
429;DHT22;201;48.758;9.290;2022-08-07T10:42:10;41.70;1.00
429;DHT22;201;48.758;9.290;2022-08-07T10:44:51;42.40;1.00
429;DHT22;201;48.758;9.290;2022-08-07T10:47:28;42.40;1.00
429;DHT22;201;48.758;9.290;2022-08-07T10:50:53;41.40;1.00
429;DHT22;201;48.758;9.290;2022-08-07T10:53:30;40.20;1.00
429;DHT22;201;48.758;9.290;2022-08-07T10:56:08;38.40;1.00
429;DHT22;201;48.758;9.290;2022-08-07T10:58:55;36.10;1.00
429;DHT22;201;48.758;9.290;2022-08-07T11:04:16;34.70;1.00
429;DHT22;201;48.758;9.290;2022-08-07T11:09:33;38.90;1.00
429;DHT22;201;48.758;9.290;2022-08-07T11:12:18;38.50;1.00
429;DHT22;201;48.758;9.290;2022-08-07T11:14:53;37.90;1.00
429;DHT22;201;48.758;9.290;2022-08-07T11:17:40;37.10;1.00
429;DHT22;201;48.758;9.290;2022-08-07T11:20:22;35.50;1.00
429;DHT22;201;48.758;9.290;2022-08-07T11:23:17;34.10;1.00
429;DHT22;201;48.758;9.290;2022-08-07T11:28:47;31.80;1.00
429;DHT22;201;48.758;9.290;2022-08-07T11:34:28;30.40;1.00
429;DHT22;201;48.758;9.290;2022-08-07T11:42:18;29.50;1.00
429;DHT22;201;48.758;9.290;2022-08-07T11:45:08;29.50;1.00
429;DHT22;201;48.758;9.290;2022-08-07T11:47:58;28.90;1.00
429;DHT22;201;48.758;9.290;2022-08-07T11:50:26;28.40;1.00
429;DHT22;201;48.758;9.290;2022-08-07T11:56:19;28.70;1.00
429;DHT22;201;48.758;9.290;2022-08-07T11:58:59;28.50;1.00
429;DHT22;201;48.758;9.290;2022-08-07T12:04:26;28.40;1.00
429;DHT22;201;48.758;9.290;2022-08-07T12:07:00;28.40;1.00
429;DHT22;201;48.758;9.290;2022-08-07T12:09:38;28.40;1.00
429;DHT22;201;48.758;9.290;2022-08-07T12:12:11;28.50;1.00
429;DHT22;201;48.758;9.290;2022-08-07T12:14:51;28.60;1.00
429;DHT22;201;48.758;9.290;2022-08-07T12:17:25;28.40;1.00
429;DHT22;201;48.758;9.290;2022-08-07T12:19:59;28.50;1.00
429;DHT22;201;48.758;9.290;2022-08-07T12:22:38;28.40;1.00
429;DHT22;201;48.758;9.290;2022-08-07T12:25:23;28.50;1.00
429;DHT22;201;48.758;9.290;2022-08-07T12:28:16;28.60;1.00
429;DHT22;201;48.758;9.290;2022-08-07T12:30:48;28.60;1.00
429;DHT22;201;48.758;9.290;2022-08-07T12:33:18;28.70;1.00
429;DHT22;201;48.758;9.290;2022-08-07T12:35:47;28.60;1.00
429;DHT22;201;48.758;9.290;2022-08-07T12:38:14;28.70;1.00
429;DHT22;201;48.758;9.290;2022-08-07T12:40:43;28.80;1.00
429;DHT22;201;48.758;9.290;2022-08-07T12:43:11;28.80;1.00
429;DHT22;201;48.758;9.290;2022-08-07T12:49:10;29.10;1.00
429;DHT22;201;48.758;9.290;2022-08-07T12:51:49;29.30;1.00
429;DHT22;201;48.758;9.290;2022-08-07T12:54:28;29.20;1.00
429;DHT22;201;48.758;9.290;2022-08-07T12:56:57;29.20;1.00
429;DHT22;201;48.758;9.290;2022-08-07T12:59:28;29.10;1.00
429;DHT22;201;48.758;9.290;2022-08-07T13:18:44;29.00;1.00
429;DHT22;201;48.758;9.290;2022-08-07T13:21:30;28.90;1.00
429;DHT22;201;48.758;9.290;2022-08-07T13:24:00;28.90;1.00
429;DHT22;201;48.758;9.290;2022-08-07T13:26:38;28.80;1.00
429;DHT22;201;48.758;9.290;2022-08-07T13:29:11;28.90;1.00
429;DHT22;201;48.758;9.290;2022-08-07T13:37:20;28.30;1.00
429;DHT22;201;48.758;9.290;2022-08-07T13:42:27;28.10;1.00
429;DHT22;201;48.758;9.290;2022-08-07T13:44:55;28.20;1.00
429;DHT22;201;48.758;9.290;2022-08-07T13:47:25;28.20;1.00
429;DHT22;201;48.758;9.290;2022-08-07T13:49:54;28.30;1.00
429;DHT22;201;48.758;9.290;2022-08-07T13:52:22;28.30;1.00
429;DHT22;201;48.758;9.290;2022-08-07T13:54:49;28.20;1.00
429;DHT22;201;48.758;9.290;2022-08-07T13:57:16;28.30;1.00
429;DHT22;201;48.758;9.290;2022-08-07T13:59:44;28.70;1.00
429;DHT22;201;48.758;9.290;2022-08-07T14:02:21;28.90;1.00
429;DHT22;201;48.758;9.290;2022-08-07T14:04:50;29.20;1.00
429;DHT22;201;48.758;9.290;2022-08-07T14:07:20;29.40;1.00
429;DHT22;201;48.758;9.290;2022-08-07T14:09:46;29.50;1.00
429;DHT22;201;48.758;9.290;2022-08-07T14:12:25;29.50;1.00
429;DHT22;201;48.758;9.290;2022-08-07T14:15:03;29.50;1.00
429;DHT22;201;48.758;9.290;2022-08-07T14:17:30;29.40;1.00
429;DHT22;201;48.758;9.290;2022-08-07T14:20:10;29.40;1.00
429;DHT22;201;48.758;9.290;2022-08-07T14:22:40;28.90;1.00
429;DHT22;201;48.758;9.290;2022-08-07T14:25:11;28.90;1.00
429;DHT22;201;48.758;9.290;2022-08-07T14:27:42;28.80;1.00
429;DHT22;201;48.758;9.290;2022-08-07T14:30:10;28.70;1.00
429;DHT22;201;48.758;9.290;2022-08-07T14:32:46;28.80;1.00
429;DHT22;201;48.758;9.290;2022-08-07T14:35:41;28.70;1.00
429;DHT22;201;48.758;9.290;2022-08-07T14:38:07;28.70;1.00
429;DHT22;201;48.758;9.290;2022-08-07T14:40:34;28.90;1.00
429;DHT22;201;48.758;9.290;2022-08-07T14:43:03;28.70;1.00
429;DHT22;201;48.758;9.290;2022-08-07T14:45:32;28.50;1.00
429;DHT22;201;48.758;9.290;2022-08-07T14:48:00;28.50;1.00
429;DHT22;201;48.758;9.290;2022-08-07T14:50:28;28.60;1.00
429;DHT22;201;48.758;9.290;2022-08-07T14:52:54;28.40;1.00
429;DHT22;201;48.758;9.290;2022-08-07T14:55:22;28.40;1.00
429;DHT22;201;48.758;9.290;2022-08-07T14:57:51;28.50;1.00
429;DHT22;201;48.758;9.290;2022-08-07T15:00:24;28.50;1.00
429;DHT22;201;48.758;9.290;2022-08-07T15:02:51;28.20;1.00
429;DHT22;201;48.758;9.290;2022-08-07T15:05:20;28.30;1.00
429;DHT22;201;48.758;9.290;2022-08-07T15:07:45;28.30;1.00
429;DHT22;201;48.758;9.290;2022-08-07T15:10:23;28.30;1.00
429;DHT22;201;48.758;9.290;2022-08-07T15:12:52;28.20;1.00
429;DHT22;201;48.758;9.290;2022-08-07T15:15:36;28.20;1.00
429;DHT22;201;48.758;9.290;2022-08-07T15:18:08;28.40;1.00
429;DHT22;201;48.758;9.290;2022-08-07T15:20:35;28.30;1.00
429;DHT22;201;48.758;9.290;2022-08-07T15:23:08;28.20;1.00
429;DHT22;201;48.758;9.290;2022-08-07T15:25:38;28.20;1.00
429;DHT22;201;48.758;9.290;2022-08-07T15:28:06;28.20;1.00
429;DHT22;201;48.758;9.290;2022-08-07T15:30:33;28.10;1.00
429;DHT22;201;48.758;9.290;2022-08-07T15:33:01;27.80;1.00
429;DHT22;201;48.758;9.290;2022-08-07T15:35:31;27.70;1.00
429;DHT22;201;48.758;9.290;2022-08-07T15:37:59;27.60;1.00
429;DHT22;201;48.758;9.290;2022-08-07T15:40:28;27.40;1.00
429;DHT22;201;48.758;9.290;2022-08-07T15:43:14;27.20;1.00
429;DHT22;201;48.758;9.290;2022-08-07T15:45:42;27.20;1.00
429;DHT22;201;48.758;9.290;2022-08-07T15:48:19;27.30;1.00
429;DHT22;201;48.758;9.290;2022-08-07T15:50:51;27.20;1.00
429;DHT22;201;48.758;9.290;2022-08-07T15:53:25;27.30;1.00
429;DHT22;201;48.758;9.290;2022-08-07T15:55:54;27.30;1.00
429;DHT22;201;48.758;9.290;2022-08-07T15:58:31;27.40;1.00
429;DHT22;201;48.758;9.290;2022-08-07T16:00:57;27.50;1.00
429;DHT22;201;48.758;9.290;2022-08-07T16:03:24;27.30;1.00
429;DHT22;201;48.758;9.290;2022-08-07T16:05:51;27.30;1.00
429;DHT22;201;48.758;9.290;2022-08-07T16:08:23;27.20;1.00
429;DHT22;201;48.758;9.290;2022-08-07T16:11:23;27.20;1.00
429;DHT22;201;48.758;9.290;2022-08-07T16:14:06;27.10;1.00
429;DHT22;201;48.758;9.290;2022-08-07T16:22:10;26.90;1.00
429;DHT22;201;48.758;9.290;2022-08-07T16:24:53;26.90;1.00
429;DHT22;201;48.758;9.290;2022-08-07T16:27:28;27.00;1.00
429;DHT22;201;48.758;9.290;2022-08-07T16:30:07;26.90;1.00
429;DHT22;201;48.758;9.290;2022-08-07T16:32:46;26.80;1.00
429;DHT22;201;48.758;9.290;2022-08-07T16:35:20;26.80;1.00
429;DHT22;201;48.758;9.290;2022-08-07T16:38:12;26.80;1.00
429;DHT22;201;48.758;9.290;2022-08-07T16:41:19;26.70;1.00
429;DHT22;201;48.758;9.290;2022-08-07T16:52:19;27.40;1.00
429;DHT22;201;48.758;9.290;2022-08-07T16:55:00;27.20;1.00
429;DHT22;201;48.758;9.290;2022-08-07T17:01:18;27.10;1.00
429;DHT22;201;48.758;9.290;2022-08-07T17:03:33;27.10;1.00
429;DHT22;201;48.758;9.290;2022-08-07T17:06:12;27.00;1.00
429;DHT22;201;48.758;9.290;2022-08-07T17:08:54;26.90;1.00
429;DHT22;201;48.758;9.290;2022-08-07T17:11:32;27.00;1.00
429;DHT22;201;48.758;9.290;2022-08-07T17:14:07;26.90;1.00
429;DHT22;201;48.758;9.290;2022-08-07T17:16:50;26.90;1.00
429;DHT22;201;48.758;9.290;2022-08-07T17:19:37;26.90;1.00
429;DHT22;201;48.758;9.290;2022-08-07T17:22:15;26.80;1.00
429;DHT22;201;48.758;9.290;2022-08-07T17:24:48;26.70;1.00
429;DHT22;201;48.758;9.290;2022-08-07T17:30:07;26.60;1.00
429;DHT22;201;48.758;9.290;2022-08-07T17:33:08;26.60;1.00
429;DHT22;201;48.758;9.290;2022-08-07T17:38:21;26.70;1.00
429;DHT22;201;48.758;9.290;2022-08-07T17:41:07;26.70;1.00
429;DHT22;201;48.758;9.290;2022-08-07T17:43:39;26.80;1.00
429;DHT22;201;48.758;9.290;2022-08-07T17:46:11;26.80;1.00
429;DHT22;201;48.758;9.290;2022-08-07T17:49:03;26.90;1.00
429;DHT22;201;48.758;9.290;2022-08-07T17:51:49;26.90;1.00
429;DHT22;201;48.758;9.290;2022-08-07T17:54:41;26.70;1.00
429;DHT22;201;48.758;9.290;2022-08-07T17:59:51;26.30;1.00
429;DHT22;201;48.758;9.290;2022-08-07T18:02:26;26.20;1.00
429;DHT22;201;48.758;9.290;2022-08-07T18:05:03;26.10;1.00
429;DHT22;201;48.758;9.290;2022-08-07T18:07:37;26.10;1.00
429;DHT22;201;48.758;9.290;2022-08-07T18:10:12;26.00;1.00
429;DHT22;201;48.758;9.290;2022-08-07T18:13:09;25.80;1.00
429;DHT22;201;48.758;9.290;2022-08-07T18:15:53;25.70;1.00
429;DHT22;201;48.758;9.290;2022-08-07T18:18:21;25.60;1.00
429;DHT22;201;48.758;9.290;2022-08-07T18:24:05;25.30;1.00
429;DHT22;201;48.758;9.290;2022-08-07T18:26:58;25.30;1.00
429;DHT22;201;48.758;9.290;2022-08-07T18:29:55;25.10;1.00
429;DHT22;201;48.758;9.290;2022-08-07T18:35:35;25.00;1.00
429;DHT22;201;48.758;9.290;2022-08-07T18:44:34;24.70;1.00
429;DHT22;201;48.758;9.290;2022-08-07T18:58:22;24.30;1.00
429;DHT22;201;48.758;9.290;2022-08-07T19:01:38;24.30;1.00
429;DHT22;201;48.758;9.290;2022-08-07T19:03:50;24.20;1.00
429;DHT22;201;48.758;9.290;2022-08-07T19:06:27;24.20;1.00
429;DHT22;201;48.758;9.290;2022-08-07T19:11:37;24.10;1.00
429;DHT22;201;48.758;9.290;2022-08-07T19:14:34;24.10;1.00
429;DHT22;201;48.758;9.290;2022-08-07T19:17:05;24.00;1.00
429;DHT22;201;48.758;9.290;2022-08-07T19:20:04;23.90;1.00
429;DHT22;201;48.758;9.290;2022-08-07T19:22:35;23.90;1.00
429;DHT22;201;48.758;9.290;2022-08-07T19:25:03;23.80;1.00
429;DHT22;201;48.758;9.290;2022-08-07T19:27:32;23.70;1.00
429;DHT22;201;48.758;9.290;2022-08-07T19:30:11;23.60;1.00
429;DHT22;201;48.758;9.290;2022-08-07T19:32:40;23.60;1.00
429;DHT22;201;48.758;9.290;2022-08-07T19:35:10;23.50;1.00
429;DHT22;201;48.758;9.290;2022-08-07T19:37:39;23.50;1.00
429;DHT22;201;48.758;9.290;2022-08-07T19:40:08;23.50;1.00
429;DHT22;201;48.758;9.290;2022-08-07T19:42:39;23.40;1.00
429;DHT22;201;48.758;9.290;2022-08-07T19:45:11;23.30;1.00
429;DHT22;201;48.758;9.290;2022-08-07T19:47:38;23.30;1.00
429;DHT22;201;48.758;9.290;2022-08-07T19:50:05;23.20;1.00
429;DHT22;201;48.758;9.290;2022-08-07T19:52:31;23.10;1.00
429;DHT22;201;48.758;9.290;2022-08-07T19:54:57;23.10;1.00
429;DHT22;201;48.758;9.290;2022-08-07T19:57:43;23.00;1.00
429;DHT22;201;48.758;9.290;2022-08-07T20:00:14;23.00;1.00
429;DHT22;201;48.758;9.290;2022-08-07T20:02:50;23.00;1.00
429;DHT22;201;48.758;9.290;2022-08-07T20:05:29;22.90;1.00